createdAt,value
2023-01-20T00:01:53.339Z,94782.81
2023-01-20T00:04:20.948Z,94788.00
2023-01-20T00:06:49.020Z,94782.81
2023-01-20T00:09:18.472Z,94783.38
2023-01-20T00:11:46.456Z,94791.16
2023-01-20T00:14:15.110Z,94788.44
2023-01-20T00:16:43.002Z,94787.47
2023-01-20T00:19:14.066Z,94796.06
2023-01-20T00:21:42.647Z,94791.16
2023-01-20T00:24:10.528Z,94796.47
2023-01-20T00:26:38.134Z,94799.22
2023-01-20T00:29:06.419Z,94803.44
2023-01-20T00:31:34.631Z,94807.41
2023-01-20T00:34:03.269Z,94811.19
2023-01-20T00:36:33.286Z,94810.66
2023-01-20T00:39:02.654Z,94806.44
2023-01-20T00:41:31.209Z,94807.78
2023-01-20T00:43:59.567Z,94809.41
2023-01-20T00:46:27.725Z,94810.94
2023-01-20T00:48:55.407Z,94812.72
2023-01-20T00:51:23.101Z,94810.38
2023-01-20T00:53:53.110Z,94817.19
2023-01-20T00:56:20.691Z,94820.75
2023-01-20T00:58:48.865Z,94822.38
2023-01-20T01:01:16.561Z,94822.97
2023-01-20T01:03:45.535Z,94831.66
2023-01-20T01:06:14.937Z,94830.63
2023-01-20T01:08:43.293Z,94833.88
2023-01-20T01:11:13.118Z,94833.88
2023-01-20T01:13:42.546Z,94840.41
2023-01-20T01:16:14.457Z,94840.13
2023-01-20T01:18:43.196Z,94842.59
2023-01-20T01:21:13.029Z,94845.84
2023-01-20T01:23:41.669Z,94846.13
2023-01-20T01:26:10.041Z,94842.47
2023-01-20T01:28:39.759Z,94834.69
2023-01-20T01:31:09.418Z,94846.16
2023-01-20T01:33:38.583Z,94851.06
2023-01-20T01:36:08.431Z,94861.44
2023-01-20T01:38:36.655Z,94859.53
2023-01-20T01:41:04.474Z,94862.78
2023-01-20T01:43:34.722Z,94857.09
2023-01-20T01:46:04.196Z,94859.81
2023-01-20T01:48:38.404Z,94858.88
2023-01-20T01:51:09.899Z,94855.19
2023-01-20T01:53:43.505Z,94856.56
2023-01-20T01:56:12.375Z,94856.28
2023-01-20T01:58:43.415Z,94861.75
2023-01-20T02:01:13.208Z,94857.91
2023-01-20T02:03:49.042Z,94846.72
2023-01-20T02:06:17.332Z,94855.47
2023-01-20T02:08:45.736Z,94848.38
2023-01-20T02:11:13.445Z,94858.72
2023-01-20T02:13:41.452Z,94858.34
2023-01-20T02:16:19.156Z,94859.81
2023-01-20T02:18:59.482Z,94859.53
2023-01-20T02:21:55.503Z,94854.06
2023-01-20T02:25:06.369Z,94855.19
2023-01-20T02:28:01.243Z,94854.78
2023-01-20T02:30:53.924Z,94848.63
2023-01-20T02:33:30.400Z,94849.19
2023-01-20T02:36:03.557Z,94848.91
2023-01-20T02:38:40.651Z,94841.56
2023-01-20T02:41:13.771Z,94850.53
2023-01-20T02:43:48.046Z,94857.38
2023-01-20T02:46:19.716Z,94849.72
2023-01-20T02:48:54.336Z,94845.34
2023-01-20T02:51:27.897Z,94858.44
2023-01-20T02:54:02.264Z,94856.38
2023-01-20T02:56:31.512Z,94857.47
2023-01-20T02:59:04.454Z,94861.47
2023-01-20T03:01:35.508Z,94864.28
2023-01-20T03:04:10.334Z,94869.38
2023-01-20T03:06:43.401Z,94876.44
2023-01-20T03:09:15.492Z,94883.81
2023-01-20T03:11:54.355Z,94869.09
2023-01-20T03:14:22.705Z,94883.53
2023-01-20T03:16:50.508Z,94890.34
2023-01-20T03:19:20.698Z,94888.03
2023-01-20T03:21:49.281Z,94888.72
2023-01-20T03:24:17.856Z,94891.44
2023-01-20T03:26:45.579Z,94899.88
2023-01-20T03:29:15.530Z,94896.75
2023-01-20T03:31:47.625Z,94899.59
2023-01-20T03:34:19.373Z,94904.53
2023-01-20T03:36:49.157Z,94899.34
2023-01-20T03:39:18.345Z,94906.69
2023-01-20T03:41:58.997Z,94905.88
2023-01-20T03:44:34.501Z,94917.06
2023-01-20T03:47:11.174Z,94917.75
2023-01-20T03:49:47.272Z,94914.91
2023-01-20T03:52:23.583Z,94924.47
2023-01-20T03:55:15.624Z,94920.63
2023-01-20T03:57:48.878Z,94926.13
2023-01-20T04:00:19.179Z,94924.78
2023-01-20T04:02:46.926Z,94917.38
2023-01-20T04:05:15.946Z,94929.81
2023-01-20T04:07:47.813Z,94925.84
2023-01-20T04:10:18.628Z,94935.41
2023-01-20T04:12:46.460Z,94935.97
2023-01-20T04:15:14.984Z,94946.34
2023-01-20T04:17:43.030Z,94947.97
2023-01-20T04:20:14.750Z,94947.00
2023-01-20T04:22:50.006Z,94945.63
2023-01-20T04:25:25.426Z,94952.59
2023-01-20T04:27:53.348Z,94956.72
2023-01-20T04:30:21.543Z,94956.13
2023-01-20T04:32:49.219Z,94949.59
2023-01-20T04:35:20.247Z,94954.09
2023-01-20T04:37:49.659Z,94958.34
2023-01-20T04:40:18.016Z,94965.16
2023-01-20T04:42:45.587Z,94969.81
2023-01-20T04:45:16.495Z,94965.84
2023-01-20T04:47:44.599Z,94970.06
2023-01-20T04:50:15.419Z,94975.91
2023-01-20T04:52:43.514Z,94974.19
2023-01-20T04:55:13.764Z,94978.00
2023-01-20T04:57:41.510Z,94976.63
2023-01-20T05:00:10.397Z,94988.63
2023-01-20T05:02:38.023Z,94985.09
2023-01-20T05:05:06.189Z,94989.75
2023-01-20T05:07:33.754Z,94993.00
2023-01-20T05:10:01.346Z,94996.56
2023-01-20T05:12:30.245Z,95000.13
2023-01-20T05:14:58.430Z,95007.91
2023-01-20T05:17:26.058Z,95000.66
2023-01-20T05:19:53.651Z,95012.13
2023-01-20T05:22:21.831Z,95010.75
2023-01-20T05:24:49.455Z,95003.94
2023-01-20T05:27:17.039Z,95015.69
2023-01-20T05:29:45.976Z,95018.97
2023-01-20T05:32:14.203Z,95026.31
2023-01-20T05:34:41.808Z,95026.72
2023-01-20T05:37:09.656Z,95031.78
2023-01-20T05:39:37.289Z,95035.34
2023-01-20T05:42:05.539Z,95041.06
2023-01-20T05:44:33.119Z,95037.53
2023-01-20T05:47:02.118Z,95044.91
2023-01-20T05:49:29.842Z,95052.00
2023-01-20T05:51:58.201Z,95053.13
2023-01-20T05:54:26.573Z,95057.75
2023-01-20T05:56:54.891Z,95054.47
2023-01-20T05:59:24.174Z,95055.81
2023-01-20T06:01:52.349Z,95064.84
2023-01-20T06:04:21.282Z,95064.00
2023-01-20T06:06:49.568Z,95062.47
2023-01-20T06:09:17.170Z,95070.00
2023-01-20T06:11:45.093Z,95065.88
2023-01-20T06:14:12.869Z,95064.50
2023-01-20T06:16:41.375Z,95065.56
2023-01-20T06:19:09.009Z,95065.94
2023-01-20T06:21:38.644Z,95062.72
2023-01-20T06:24:07.448Z,95080.28
2023-01-20T06:26:35.057Z,95073.41
2023-01-20T06:29:02.677Z,95072.06
2023-01-20T06:31:30.733Z,95086.66
2023-01-20T06:33:58.384Z,95079.88
2023-01-20T06:36:27.099Z,95079.59
2023-01-20T06:38:56.037Z,95086.56
2023-01-20T06:41:25.188Z,95087.50
2023-01-20T06:43:52.800Z,95095.44
2023-01-20T06:46:21.115Z,95089.31
2023-01-20T06:48:49.192Z,95099.16
2023-01-20T06:51:19.640Z,95099.84
2023-01-20T06:53:48.495Z,95106.50
2023-01-20T06:56:17.472Z,95099.09
2023-01-20T06:58:45.145Z,95104.28
2023-01-20T07:01:16.807Z,95107.28
2023-01-20T07:03:44.693Z,95112.22
2023-01-20T07:06:17.004Z,95107.47
2023-01-20T07:08:45.435Z,95114.09
2023-01-20T07:11:13.661Z,95115.66
2023-01-20T07:13:42.805Z,95130.06
2023-01-20T07:16:14.399Z,95126.66
2023-01-20T07:18:43.385Z,95137.03
2023-01-20T07:21:12.649Z,95140.81
2023-01-20T07:23:40.326Z,95144.88
2023-01-20T07:26:09.974Z,95150.94
2023-01-20T07:28:38.584Z,95162.41
2023-01-20T07:31:10.432Z,95162.50
2023-01-20T07:33:38.555Z,95174.09
2023-01-20T07:36:07.829Z,95173.81
2023-01-20T07:38:36.779Z,95178.75
2023-01-20T07:41:06.416Z,95177.41
2023-01-20T07:43:35.188Z,95178.00
2023-01-20T07:46:04.537Z,95174.59
2023-01-20T07:48:34.963Z,95178.00
2023-01-20T07:51:05.624Z,95188.59
2023-01-20T07:53:35.229Z,95193.91
2023-01-20T07:56:03.311Z,95196.19
2023-01-20T07:58:31.718Z,95194.16
2023-01-20T08:00:59.427Z,95193.63
2023-01-20T08:03:27.791Z,95191.47
2023-01-20T08:05:56.694Z,95193.28
2023-01-20T08:08:24.584Z,95190.44
2023-01-20T08:10:54.785Z,95207.06
2023-01-20T08:13:22.921Z,95206.53
2023-01-20T08:15:50.518Z,95206.00
2023-01-20T08:18:18.309Z,95206.94
2023-01-20T08:20:45.990Z,95214.44
2023-01-20T08:23:16.001Z,95216.09
2023-01-20T08:25:43.979Z,95223.78
2023-01-20T08:28:12.043Z,95230.47
2023-01-20T08:30:39.828Z,95228.72
2023-01-20T08:33:07.792Z,95232.00
2023-01-20T08:35:36.417Z,95233.13
2023-01-20T08:38:04.659Z,95236.03
2023-01-20T08:40:34.248Z,95236.16
2023-01-20T08:43:02.260Z,95237.16
2023-01-20T08:45:29.853Z,95239.78
2023-01-20T08:47:57.787Z,95243.34
2023-01-20T08:50:25.591Z,95250.59
2023-01-20T08:52:54.176Z,95255.13
2023-01-20T08:55:21.738Z,95249.06
2023-01-20T08:57:50.983Z,95250.97
2023-01-20T09:00:19.539Z,95265.03
2023-01-20T09:02:47.247Z,95264.38
2023-01-20T09:05:15.990Z,95268.09
2023-01-20T09:07:45.137Z,95274.53
2023-01-20T09:10:13.993Z,95267.81
2023-01-20T09:12:41.591Z,95270.69
2023-01-20T09:15:12.761Z,95266.31
2023-01-20T09:17:40.634Z,95283.38
2023-01-20T09:20:09.891Z,95285.56
2023-01-20T09:22:37.464Z,95287.81
2023-01-20T09:25:06.724Z,95287.91
2023-01-20T09:27:34.306Z,95288.78
2023-01-20T09:30:02.014Z,95290.44
2023-01-20T09:32:32.695Z,95298.66
2023-01-20T09:35:00.644Z,95297.28
2023-01-20T09:37:46.045Z,95303.16
2023-01-20T09:40:36.954Z,95292.91
2023-01-20T09:43:49.238Z,95299.06
2023-01-20T09:46:25.262Z,95304.41
2023-01-20T09:49:22.320Z,95304.13
2023-01-20T09:52:16.447Z,95306.31
2023-01-20T09:54:48.673Z,95305.66
2023-01-20T09:57:19.475Z,95306.75
2023-01-20T09:59:51.670Z,95312.03
2023-01-20T10:02:24.615Z,95310.69
2023-01-20T10:04:58.893Z,95312.00
2023-01-20T10:07:34.334Z,95311.97
2023-01-20T10:10:09.825Z,95307.34
2023-01-20T10:12:43.023Z,95318.41
2023-01-20T10:15:17.799Z,95310.06
2023-01-20T10:17:52.273Z,95312.47
2023-01-20T10:20:30.065Z,95311.09
2023-01-20T10:23:03.545Z,95319.09
2023-01-20T10:25:37.886Z,95315.84
2023-01-20T10:28:11.721Z,95314.88
2023-01-20T10:30:40.550Z,95314.88
2023-01-20T10:33:11.162Z,95318.19
2023-01-20T10:35:45.219Z,95319.66
2023-01-20T10:38:21.903Z,95307.50
2023-01-20T10:40:57.951Z,95323.56
2023-01-20T10:43:26.624Z,95318.34
2023-01-20T10:46:12.215Z,95325.22
2023-01-20T10:49:06.553Z,95319.94
2023-01-20T10:51:46.707Z,95321.34
2023-01-20T10:54:25.832Z,95324.44
2023-01-20T10:56:55.550Z,95325.47
2023-01-20T10:59:30.502Z,95322.22
2023-01-20T11:02:11.869Z,95326.28
2023-01-20T11:04:41.832Z,95314.72
2023-01-20T11:07:17.143Z,95322.22
2023-01-20T11:09:45.954Z,95312.97
2023-01-20T11:12:16.966Z,95309.09
2023-01-20T11:14:45.333Z,95327.38
2023-01-20T11:17:16.299Z,95322.84
2023-01-20T11:19:53.677Z,95327.44
2023-01-20T11:22:30.142Z,95325.66
2023-01-20T11:25:00.063Z,95324.34
2023-01-20T11:27:30.655Z,95321.41
2023-01-20T11:30:02.326Z,95323.50
2023-01-20T11:32:33.226Z,95319.03
2023-01-20T11:35:02.715Z,95323.84
2023-01-20T11:37:39.580Z,95325.53
2023-01-20T11:40:20.530Z,95316.69
2023-01-20T11:42:49.495Z,95324.81
2023-01-20T11:45:27.475Z,95314.56
2023-01-20T11:48:05.173Z,95326.63
2023-01-20T11:50:50.917Z,95317.47
2023-01-20T11:53:22.922Z,95322.91
2023-01-20T11:55:53.255Z,95328.50
2023-01-20T11:58:22.312Z,95330.00
2023-01-20T12:00:54.334Z,95334.69
2023-01-20T12:03:50.743Z,95329.66
2023-01-20T12:06:22.331Z,95330.91
2023-01-20T12:08:54.728Z,95328.97
2023-01-20T12:11:28.693Z,95332.44
2023-01-20T12:14:23.260Z,95341.50
2023-01-20T12:17:16.395Z,95345.16
2023-01-20T12:19:58.748Z,95344.72
2023-01-20T12:22:33.835Z,95352.06
2023-01-20T12:25:14.629Z,95351.56
2023-01-20T12:27:47.681Z,95353.09
2023-01-20T12:30:35.865Z,95352.38
2023-01-20T12:33:03.806Z,95347.00
2023-01-20T12:35:38.593Z,95340.91
2023-01-20T12:38:08.513Z,95342.22
2023-01-20T12:40:44.116Z,95348.75
2023-01-20T12:43:37.287Z,95351.47
2023-01-20T12:46:24.147Z,95352.66
2023-01-20T12:49:02.639Z,95352.16
2023-01-20T12:51:44.180Z,95355.69
2023-01-20T12:54:47.474Z,95357.81
2023-01-20T12:57:28.448Z,95358.03
2023-01-20T13:00:16.327Z,95358.56
2023-01-20T13:03:04.905Z,95359.09
2023-01-20T13:05:58.751Z,95370.63
2023-01-20T13:08:37.315Z,95371.16
2023-01-20T13:11:16.663Z,95365.41
2023-01-20T13:14:02.548Z,95360.75
2023-01-20T13:16:35.893Z,95358.47
2023-01-20T13:19:13.353Z,95364.09
2023-01-20T13:21:42.857Z,95360.38
2023-01-20T13:24:19.081Z,95360.75
2023-01-20T13:26:49.537Z,95364.63
2023-01-20T13:29:24.575Z,95366.50
2023-01-20T13:31:53.979Z,95373.59
2023-01-20T13:34:34.308Z,95372.22
2023-01-20T13:37:23.951Z,95368.94
2023-01-20T13:39:54.488Z,95376.50
2023-01-20T13:42:31.195Z,95380.25
2023-01-20T13:45:19.645Z,95375.03
2023-01-20T13:48:03.788Z,95384.34
2023-01-20T13:50:33.624Z,95388.06
2023-01-20T13:53:27.811Z,95399.66
2023-01-20T13:56:25.935Z,95389.84
2023-01-20T13:58:53.581Z,95398.03
2023-01-20T14:01:22.651Z,95410.91
2023-01-20T14:04:03.972Z,95397.63
2023-01-20T14:06:33.126Z,95402.94
2023-01-20T14:09:02.351Z,95403.19
2023-01-20T14:11:31.301Z,95407.56
2023-01-20T14:14:02.075Z,95410.84
2023-01-20T14:16:38.212Z,95412.75
2023-01-20T14:19:16.770Z,95421.00
2023-01-20T14:21:44.577Z,95415.84
2023-01-20T14:24:28.438Z,95426.47
2023-01-20T14:27:07.506Z,95433.25
2023-01-20T14:29:35.512Z,95432.19
2023-01-20T14:32:17.047Z,95426.88
2023-01-20T14:34:45.150Z,95432.56
2023-01-20T14:37:25.844Z,95431.66
2023-01-20T14:39:54.949Z,95436.38
2023-01-20T14:42:24.099Z,95439.56
2023-01-20T14:44:53.194Z,95443.09
2023-01-20T14:47:25.180Z,95442.44
2023-01-20T14:49:54.804Z,95446.91
2023-01-20T14:52:25.759Z,95449.03
2023-01-20T14:54:56.160Z,95448.16
2023-01-20T14:57:29.899Z,95458.66
2023-01-20T15:00:04.683Z,95446.31
2023-01-20T15:02:35.928Z,95452.06
2023-01-20T15:05:03.970Z,95451.44
2023-01-20T15:07:31.647Z,95461.25
2023-01-20T15:10:03.142Z,95460.38
2023-01-20T15:12:42.418Z,95466.16
2023-01-20T15:15:30.049Z,95459.31
2023-01-20T15:18:07.011Z,95476.38
2023-01-20T15:20:35.933Z,95474.66
2023-01-20T15:23:03.887Z,95473.06
2023-01-20T15:25:31.652Z,95475.47
2023-01-20T15:27:59.857Z,95473.00
2023-01-20T15:30:29.749Z,95482.16
2023-01-20T15:32:58.113Z,95489.84
2023-01-20T15:35:27.256Z,95492.88
2023-01-20T15:37:55.780Z,95492.94
2023-01-20T15:40:25.564Z,95500.72
2023-01-20T15:42:53.408Z,95493.94
2023-01-20T15:45:21.278Z,95495.31
2023-01-20T15:47:49.766Z,95502.44
2023-01-20T15:50:20.270Z,95512.09
2023-01-20T15:52:49.541Z,95505.97
2023-01-20T15:55:19.233Z,95513.72
2023-01-20T15:57:50.587Z,95514.69
2023-01-20T16:00:20.555Z,95519.34
2023-01-20T16:02:48.684Z,95518.31
2023-01-20T16:05:17.871Z,95521.72
2023-01-20T16:07:47.492Z,95520.25
2023-01-20T16:10:18.947Z,95520.97
2023-01-20T16:12:47.443Z,95539.41
2023-01-20T16:15:18.333Z,95531.19
2023-01-20T16:17:46.129Z,95531.78
2023-01-20T16:20:21.963Z,95538.59
2023-01-20T16:22:49.752Z,95538.41
2023-01-20T16:25:19.025Z,95545.41
2023-01-20T16:27:47.048Z,95535.44
2023-01-20T16:30:17.396Z,95544.59
2023-01-20T16:32:46.524Z,95539.19
2023-01-20T16:35:15.087Z,95546.06
2023-01-20T16:37:43.708Z,95546.03
2023-01-20T16:40:14.792Z,95552.03
2023-01-20T16:42:43.893Z,95557.78
2023-01-20T16:45:24.148Z,95555.44
2023-01-20T16:47:51.791Z,95553.59
2023-01-20T16:50:19.772Z,95556.72
2023-01-20T16:52:48.119Z,95560.41
2023-01-20T16:55:16.350Z,95558.19
2023-01-20T16:57:45.284Z,95568.16
2023-01-20T17:00:15.041Z,95568.41
2023-01-20T17:02:45.520Z,95571.44
2023-01-20T17:05:13.253Z,95581.34
2023-01-20T17:07:40.829Z,95583.22
2023-01-20T17:10:09.547Z,95591.81
2023-01-20T17:12:37.132Z,95589.66
2023-01-20T17:15:07.899Z,95591.91
2023-01-20T17:17:38.505Z,95586.22
2023-01-20T17:20:10.153Z,95588.44
2023-01-20T17:22:39.167Z,95590.47
2023-01-20T17:25:08.701Z,95593.63
2023-01-20T17:27:36.548Z,95597.25
2023-01-20T17:30:07.814Z,95598.66
2023-01-20T17:32:35.864Z,95601.13
2023-01-20T17:35:04.878Z,95598.41
2023-01-20T17:37:32.582Z,95603.88
2023-01-20T17:40:00.715Z,95603.28
2023-01-20T17:42:28.355Z,95616.88
2023-01-20T17:44:58.403Z,95617.94
2023-01-20T17:47:28.063Z,95620.66
2023-01-20T17:49:56.988Z,95618.22
2023-01-20T17:52:24.596Z,95615.47
2023-01-20T17:54:52.661Z,95617.94
2023-01-20T17:57:20.297Z,95629.97
2023-01-20T17:59:47.969Z,95625.59
2023-01-20T18:02:18.798Z,95627.25
2023-01-20T18:04:47.785Z,95618.06
2023-01-20T18:07:15.685Z,95625.78
2023-01-20T18:09:43.288Z,95633.25
2023-01-20T18:12:10.897Z,95633.72
2023-01-20T18:14:38.602Z,95629.25
2023-01-20T18:17:06.422Z,95639.28
2023-01-20T18:19:34.260Z,95636.84
2023-01-20T18:22:07.057Z,95639.91
2023-01-20T18:24:34.758Z,95636.03
2023-01-20T18:27:02.483Z,95636.13
2023-01-20T18:29:30.647Z,95648.13
2023-01-20T18:31:59.210Z,95642.03
2023-01-20T18:34:27.304Z,95646.00
2023-01-20T18:36:54.937Z,95646.84
2023-01-20T18:39:25.294Z,95649.69
2023-01-20T18:41:53.248Z,95649.09
2023-01-20T18:44:22.226Z,95649.81
2023-01-20T18:46:50.108Z,95646.28
2023-01-20T18:49:18.751Z,95641.19
2023-01-20T18:51:48.057Z,95642.25
2023-01-20T18:54:18.358Z,95642.63
2023-01-20T18:56:47.920Z,95641.56
2023-01-20T18:59:15.901Z,95645.09
2023-01-20T19:01:46.303Z,95646.28
2023-01-20T19:04:14.375Z,95646.84
2023-01-20T19:06:43.469Z,95648.88
2023-01-20T19:09:12.016Z,95646.72
2023-01-20T19:11:40.933Z,95656.63
2023-01-20T19:14:13.163Z,95664.06
2023-01-20T19:16:45.078Z,95657.25
2023-01-20T19:19:13.676Z,95657.34
2023-01-20T19:21:41.640Z,95658.75
2023-01-20T19:24:11.863Z,95661.47
2023-01-20T19:26:40.322Z,95661.47
2023-01-20T19:29:15.622Z,95659.72
2023-01-20T19:31:44.148Z,95657.69
2023-01-20T19:34:11.827Z,95664.88
2023-01-20T19:36:40.170Z,95661.34
2023-01-20T19:39:07.896Z,95659.81
2023-01-20T19:41:36.780Z,95661.91
2023-01-20T19:44:07.728Z,95666.53
2023-01-20T19:46:39.148Z,95657.31
2023-01-20T19:49:07.473Z,95657.16
2023-01-20T19:51:37.686Z,95657.72
2023-01-20T19:54:06.643Z,95658.00
2023-01-20T19:56:36.249Z,95662.38
2023-01-20T19:59:05.839Z,95666.81
2023-01-20T20:01:35.855Z,95669.66
2023-01-20T20:04:07.665Z,95666.97
2023-01-20T20:06:38.306Z,95662.63
2023-01-20T20:09:08.036Z,95675.38
2023-01-20T20:11:37.851Z,95683.25
2023-01-20T20:14:07.469Z,95675.47
2023-01-20T20:16:37.674Z,95680.91
2023-01-20T20:19:09.752Z,95683.75
2023-01-20T20:21:38.609Z,95684.81
2023-01-20T20:24:06.875Z,95693.31
2023-01-20T20:26:36.869Z,95690.38
2023-01-20T20:29:06.240Z,95691.69
2023-01-20T20:31:36.272Z,95686.75
2023-01-20T20:34:07.546Z,95688.88
2023-01-20T20:36:36.156Z,95691.34
2023-01-20T20:39:04.946Z,95694.41
2023-01-20T20:41:35.587Z,95698.75
2023-01-20T20:44:04.086Z,95691.69
2023-01-20T20:46:32.394Z,95693.81
2023-01-20T20:49:02.328Z,95698.50
2023-01-20T20:51:33.627Z,95694.50
2023-01-20T20:54:03.709Z,95699.09
2023-01-20T20:56:32.390Z,95693.81
2023-01-20T20:59:03.359Z,95698.97
2023-01-20T21:01:32.608Z,95705.00
2023-01-20T21:04:01.184Z,95701.31
2023-01-20T21:06:29.451Z,95706.69
2023-01-20T21:08:59.913Z,95709.75
2023-01-20T21:11:28.119Z,95709.25
2023-01-20T21:13:56.253Z,95714.16
2023-01-20T21:16:25.309Z,95711.69
2023-01-20T21:18:56.041Z,95709.16
2023-01-20T21:21:24.205Z,95717.81
2023-01-20T21:23:53.528Z,95716.88
2023-01-20T21:26:23.506Z,95715.09
2023-01-20T21:28:51.946Z,95723.34
2023-01-20T21:31:21.904Z,95717.41
2023-01-20T21:33:54.401Z,95715.13
2023-01-20T21:36:22.156Z,95715.56
2023-01-20T21:38:50.837Z,95723.56
2023-01-20T21:41:19.695Z,95717.63
2023-01-20T21:44:06.969Z,95730.16
2023-01-20T21:46:38.425Z,95723.94
2023-01-20T21:49:25.857Z,95727.03
2023-01-20T21:52:12.064Z,95727.44
2023-01-20T21:54:41.264Z,95728.75
2023-01-20T21:57:09.252Z,95735.03
2023-01-20T21:59:39.245Z,95736.25
2023-01-20T22:02:07.429Z,95730.84
2023-01-20T22:04:35.964Z,95733.00
2023-01-20T22:07:03.569Z,95729.88
2023-01-20T22:09:31.565Z,95732.75
2023-01-20T22:11:59.227Z,95735.22
2023-01-20T22:14:27.307Z,95737.81
2023-01-20T22:16:56.292Z,95742.56
2023-01-20T22:19:23.915Z,95742.44
2023-01-20T22:21:51.875Z,95743.97
2023-01-20T22:24:20.255Z,95748.09
2023-01-20T22:26:48.391Z,95746.22
2023-01-20T22:29:16.651Z,95749.47
2023-01-20T22:31:44.388Z,95751.88
2023-01-20T22:34:13.689Z,95758.09
2023-01-20T22:36:41.607Z,95757.25
2023-01-20T22:39:11.985Z,95762.81
2023-01-20T22:41:39.668Z,95750.72
2023-01-20T22:44:08.018Z,95761.44
2023-01-20T22:46:35.667Z,95760.78
2023-01-20T22:49:03.680Z,95763.88
2023-01-20T22:51:32.753Z,95760.84
2023-01-20T22:54:02.514Z,95761.09
2023-01-20T22:56:33.049Z,95759.25
2023-01-20T22:59:01.753Z,95760.41
2023-01-20T23:01:31.962Z,95765.16
2023-01-20T23:04:01.577Z,95764.72
2023-01-20T23:06:32.436Z,95759.53
2023-01-20T23:09:03.312Z,95763.91
2023-01-20T23:11:31.580Z,95762.34
2023-01-20T23:14:00.195Z,95757.63
2023-01-20T23:16:28.008Z,95765.41
2023-01-20T23:18:55.700Z,95762.00
2023-01-20T23:21:24.536Z,95762.53
2023-01-20T23:23:54.571Z,95766.91
2023-01-20T23:26:25.657Z,95766.28
2023-01-20T23:28:53.895Z,95770.97
2023-01-20T23:31:23.483Z,95768.38
2023-01-20T23:33:51.478Z,95771.91
2023-01-20T23:36:21.924Z,95771.47
2023-01-20T23:38:49.740Z,95766.41
2023-01-20T23:41:17.778Z,95770.13
2023-01-20T23:43:46.748Z,95768.91
2023-01-20T23:46:14.790Z,95770.13
2023-01-20T23:48:42.483Z,95767.34
2023-01-20T23:51:10.755Z,95766.84
2023-01-20T23:53:40.376Z,95765.31
2023-01-20T23:56:13.446Z,95767.09
2023-01-20T23:58:41.539Z,95769.00
